TimeCDT,TemperatureF,Dew PointF,Humidity,Sea Level PressureIn,VisibilityMPH,Wind Direction,Wind SpeedMPH,Gust SpeedMPH,PrecipitationIn,Events,Conditions,WindDirDegrees,DateUTC
12:15 AM,46.4,43.9,91,30.00,10.0,Calm,Calm,-,N/A,,Clear,0,2013-10-17 05:15:00
12:35 AM,46.0,44.1,93,29.99,10.0,Calm,Calm,-,N/A,,Clear,0,2013-10-17 05:35:00
12:55 AM,45.5,43.2,92,30.00,10.0,Calm,Calm,-,N/A,,Clear,0,2013-10-17 05:55:00
1:15 AM,47.7,45.5,92,30.00,10.0,Calm,Calm,-,N/A,Rain,Light Rain,0,2013-10-17 06:15:00
1:35 AM,48.2,45.9,92,30.00,10.0,Calm,Calm,-,N/A,Rain,Light Rain,0,2013-10-17 06:35:00
1:55 AM,48.9,46.4,91,30.00,10.0,Calm,Calm,-,N/A,Rain,Light Rain,0,2013-10-17 06:55:00
2:15 AM,49.1,46.9,92,30.00,10.0,Calm,Calm,-,N/A,,Overcast,0,2013-10-17 07:15:00
2:35 AM,50.2,47.8,92,29.98,10.0,Calm,Calm,-,N/A,,Overcast,0,2013-10-17 07:35:00
2:55 AM,50.0,47.7,92,29.98,10.0,Calm,Calm,-,N/A,,Overcast,0,2013-10-17 07:55:00
3:15 AM,50.2,47.8,92,29.98,10.0,Calm,Calm,-,N/A,Rain,Light Rain,0,2013-10-17 08:15:00
3:35 AM,50.0,47.7,92,29.97,10.0,Calm,Calm,-,N/A,,Overcast,0,2013-10-17 08:35:00
3:55 AM,50.2,47.5,90,29.96,10.0,Calm,Calm,-,N/A,Rain,Light Rain,0,2013-10-17 08:55:00
4:15 AM,50.2,47.3,90,29.97,10.0,Calm,Calm,-,N/A,,Overcast,0,2013-10-17 09:15:00
4:35 AM,50.2,47.3,90,29.97,10.0,Calm,Calm,-,N/A,,Overcast,0,2013-10-17 09:35:00
4:55 AM,50.0,47.3,90,29.97,10.0,Calm,Calm,-,N/A,,Overcast,0,2013-10-17 09:55:00
5:15 AM,50.0,47.3,90,29.98,10.0,Calm,Calm,-,N/A,,Overcast,0,2013-10-17 10:15:00
5:35 AM,50.2,47.7,91,29.97,10.0,Calm,Calm,-,N/A,,Overcast,0,2013-10-17 10:35:00
5:55 AM,50.2,47.8,92,29.98,10.0,WSW,3.5,-,N/A,,Overcast,240,2013-10-17 10:55:00
6:15 AM,50.4,47.8,91,29.98,10.0,SW,3.5,-,N/A,Rain,Light Rain,220,2013-10-17 11:15:00
6:35 AM,50.4,48.2,92,29.99,10.0,WSW,4.6,-,0.01,Rain,Light Rain,240,2013-10-17 11:35:00
6:55 AM,50.5,48.2,92,29.98,10.0,WSW,4.6,-,0.01,Rain,Light Rain,240,2013-10-17 11:55:00
7:15 AM,50.4,48.2,92,29.98,10.0,WSW,3.5,-,N/A,,Overcast,240,2013-10-17 12:15:00
7:35 AM,50.5,48.2,92,29.98,10.0,SW,3.5,-,N/A,,Overcast,230,2013-10-17 12:35:00
7:55 AM,50.7,48.2,91,29.98,10.0,WSW,3.5,-,N/A,,Overcast,240,2013-10-17 12:55:00
8:15 AM,50.9,48.2,90,29.98,10.0,SW,3.5,-,N/A,,Overcast,230,2013-10-17 13:15:00
8:35 AM,51.4,48.4,89,29.99,10.0,WSW,4.6,-,N/A,,Overcast,240,2013-10-17 13:35:00
8:55 AM,52.3,48.7,88,30.00,10.0,SW,4.6,-,N/A,,Overcast,230,2013-10-17 13:55:00
9:15 AM,52.7,48.7,86,30.00,10.0,SW,5.8,-,N/A,,Overcast,230,2013-10-17 14:15:00
9:35 AM,53.2,48.4,84,30.00,10.0,WSW,4.6,-,N/A,,Overcast,250,2013-10-17 14:35:00
9:55 AM,54.0,48.7,82,30.00,10.0,WSW,6.9,-,N/A,,Overcast,250,2013-10-17 14:55:00
10:15 AM,54.3,48.6,81,30.00,10.0,West,5.8,-,N/A,,Overcast,270,2013-10-17 15:15:00
10:35 AM,54.3,48.4,80,30.00,10.0,WSW,8.1,-,N/A,,Overcast,250,2013-10-17 15:35:00
10:55 AM,54.7,48.4,79,30.00,10.0,WSW,9.2,-,N/A,,Overcast,240,2013-10-17 15:55:00
11:15 AM,54.7,48.4,79,30.01,10.0,WSW,9.2,-,N/A,,Overcast,250,2013-10-17 16:15:00
11:35 AM,54.5,48.4,80,30.01,10.0,West,4.6,-,N/A,,Overcast,260,2013-10-17 16:35:00
11:55 AM,56.1,49.3,78,30.00,10.0,West,4.6,-,N/A,,Overcast,270,2013-10-17 16:55:00
12:15 PM,57.2,47.8,71,29.99,10.0,West,8.1,-,N/A,,Overcast,280,2013-10-17 17:15:00
12:35 PM,57.9,47.8,69,29.99,10.0,WSW,11.5,-,N/A,,Overcast,250,2013-10-17 17:35:00
12:55 PM,58.8,48.2,68,29.98,10.0,SW,8.1,-,N/A,,Mostly Cloudy,230,2013-10-17 17:55:00
1:15 PM,59.4,47.8,66,29.97,10.0,WSW,9.2,-,N/A,,Mostly Cloudy,250,2013-10-17 18:15:00
1:35 PM,61.7,47.1,59,29.96,10.0,West,9.2,-,N/A,,Mostly Cloudy,280,2013-10-17 18:35:00
1:55 PM,63.5,46.8,54,29.96,10.0,WSW,11.5,-,N/A,,Mostly Cloudy,250,2013-10-17 18:55:00
2:15 PM,62.2,47.3,58,29.95,10.0,WNW,9.2,-,N/A,,Mostly Cloudy,300,2013-10-17 19:15:00
2:35 PM,62.8,45.9,54,29.95,10.0,WNW,11.5,-,N/A,,Mostly Cloudy,300,2013-10-17 19:35:00
2:55 PM,63.1,45.5,53,29.95,10.0,NW,5.8,-,N/A,,Mostly Cloudy,320,2013-10-17 19:55:00
3:15 PM,63.0,44.8,51,29.95,10.0,West,10.4,-,N/A,,Scattered Clouds,280,2013-10-17 20:15:00
3:35 PM,63.9,44.4,49,29.95,10.0,West,8.1,-,N/A,,Clear,260,2013-10-17 20:35:00
3:55 PM,63.7,43.3,48,29.95,10.0,WNW,6.9,-,N/A,,Clear,290,2013-10-17 20:55:00
4:15 PM,64.2,43.7,47,29.94,10.0,NW,8.1,-,N/A,,Scattered Clouds,310,2013-10-17 21:15:00
4:35 PM,63.3,43.3,48,29.94,10.0,West,5.8,-,N/A,,Scattered Clouds,280,2013-10-17 21:35:00
4:55 PM,62.8,43.3,49,29.94,10.0,West,4.6,-,N/A,,Clear,280,2013-10-17 21:55:00
5:15 PM,63.3,42.8,47,29.94,10.0,SW,6.9,-,N/A,,Clear,220,2013-10-17 22:15:00
5:35 PM,62.6,43.0,49,29.94,10.0,WSW,6.9,-,N/A,,Clear,240,2013-10-17 22:35:00
5:55 PM,60.8,43.5,53,29.94,10.0,Calm,Calm,-,N/A,,Clear,0,2013-10-17 22:55:00
6:15 PM,55.9,45.0,67,29.95,10.0,South,3.5,-,N/A,,Clear,180,2013-10-17 23:15:00
6:35 PM,53.2,45.5,75,29.96,10.0,Calm,Calm,-,N/A,,Clear,0,2013-10-17 23:35:00
6:55 PM,51.8,45.1,78,29.96,10.0,Calm,Calm,-,N/A,,Clear,0,2013-10-17 23:55:00
7:15 PM,50.5,45.1,82,29.96,10.0,Calm,Calm,-,N/A,,Clear,0,2013-10-18 00:15:00
7:35 PM,49.3,44.6,84,29.97,10.0,Calm,Calm,-,N/A,,Clear,0,2013-10-18 00:35:00
7:55 PM,48.2,45.0,89,29.97,10.0,Calm,Calm,-,N/A,,Clear,0,2013-10-18 00:55:00
8:15 PM,47.3,44.6,90,29.97,10.0,Calm,Calm,-,N/A,,Clear,0,2013-10-18 01:15:00
8:35 PM,46.8,44.2,91,29.97,10.0,Calm,Calm,-,N/A,,Clear,0,2013-10-18 01:35:00
8:55 PM,46.4,43.9,91,29.98,10.0,Calm,Calm,-,N/A,,Clear,0,2013-10-18 01:55:00
9:15 PM,46.6,43.5,89,29.98,10.0,Calm,Calm,-,N/A,,Clear,0,2013-10-18 02:15:00
9:35 PM,48.2,44.2,86,29.98,10.0,South,3.5,-,N/A,,Clear,180,2013-10-18 02:35:00
9:55 PM,48.9,44.4,84,29.98,10.0,South,5.8,-,N/A,,Clear,190,2013-10-18 02:55:00
10:15 PM,49.1,44.1,83,29.98,10.0,South,3.5,-,N/A,,Clear,190,2013-10-18 03:15:00
10:35 PM,48.4,43.7,84,29.98,10.0,South,4.6,-,N/A,,Clear,190,2013-10-18 03:35:00
10:55 PM,47.8,43.5,85,29.98,10.0,South,3.5,-,N/A,,Clear,180,2013-10-18 03:55:00
11:15 PM,47.3,43.5,87,29.98,10.0,South,4.6,-,N/A,,Clear,190,2013-10-18 04:15:00
11:35 PM,47.8,43.7,86,29.97,10.0,South,4.6,-,N/A,,Clear,190,2013-10-18 04:35:00
11:55 PM,47.3,43.2,86,29.97,10.0,SSW,3.5,-,N/A,,Clear,200,2013-10-18 04:55:00